PWSweather.com
Personal Weather Stations
Station Observations
VPOKROGLO
Kal Nad Kanalom, PrimorskaSI

Kal Nad KanalomPrimorskaSI

Lat: 46.072, Lon: 13.734

Elevation: 2526

Station Type: WS-2355

http://www.okroglovreme.com

High Low Average
Temperature 83.5°F28.6°F 68.7°F20.4°F 74.5°F23.6°F
Dew Point 64.6°F18.1°F 51.4°F10.8°F 57.1°F13.9°F
Winds 9.2 mph S14.8 mph S Calm Calm 3.0 mph 4.8 mph
Wind Gusts 15.9 mph25.6 mph -- 6.7 mph10.8 mph
Humidity 63% 45% 55%
Pressure 29.98 in1015.20 in 29.90 in1012.50 in -
Precipitation 0.00 in0.00 in - -
Hour Temp Dew Point Humidity Winds Wind Gusts Pressure Precip Precip Rate Daily Precip Total
12:00 AM 72.1°F22.3°C 58.4°F14.7°C 62% 0.1 mph NNW0.2 kmh NNW 2.5 mph4.0 kmh 29.92 in1013.2 mb 0.00 in0.0 mm 0.00 in0.0 mm 0.00 in0.0 mm
12:15 AM 72.7°F22.6°C 58.5°F14.7°C 61% 0.2 mph NNW0.3 kmh NNW 2.5 mph4.0 kmh 29.92 in1013.2 mb 0.00 in0.0 mm 0.00 in0.0 mm 0.00 in0.0 mm
12:30 AM 71.2°F21.8°C 58.0°F14.4°C 63% Calm Calm 0.9 mph1.4 kmh 29.91 in1012.9 mb 0.00 in0.0 mm 0.00 in0.0 mm 0.00 in0.0 mm
12:45 AM 71.2°F21.8°C 58.0°F14.4°C 63% 0.2 mph NNW0.3 kmh NNW 2.5 mph4.0 kmh 29.91 in1012.9 mb 0.00 in0.0 mm 0.00 in0.0 mm 0.00 in0.0 mm
01:00 AM 70.9°F21.6°C 57.7°F14.3°C 63% Calm Calm 1.1 mph1.8 kmh 29.91 in1012.9 mb 0.00 in0.0 mm 0.00 in0.0 mm 0.00 in0.0 mm
01:15 AM 70.7°F21.5°C 57.5°F14.2°C 63% 0.6 mph NNW1.0 kmh NNW 2.2 mph3.5 kmh 29.91 in1012.9 mb 0.00 in0.0 mm 0.00 in0.0 mm 0.00 in0.0 mm
01:30 AM 72.0°F22.2°C 56.8°F13.8°C 59% 0.4 mph NNW0.6 kmh NNW 2.7 mph4.3 kmh 29.91 in1012.9 mb 0.00 in0.0 mm 0.00 in0.0 mm 0.00 in0.0 mm
01:45 AM 73.0°F22.8°C 55.4°F13.0°C 54% 2.0 mph SSE3.2 kmh SSE 5.1 mph8.2 kmh 29.91 in1012.9 mb 0.00 in0.0 mm 0.00 in0.0 mm 0.00 in0.0 mm
02:00 AM 73.8°F23.2°C 54.5°F12.5°C 51% 3.0 mph SSE4.8 kmh SSE 6.3 mph10.1 kmh 29.91 in1012.9 mb 0.00 in0.0 mm 0.00 in0.0 mm 0.00 in0.0 mm
02:15 AM 73.2°F22.9°C 54.0°F12.2°C 51% 2.6 mph SSE4.2 kmh SSE 6.3 mph10.1 kmh 29.91 in1012.9 mb 0.00 in0.0 mm 0.00 in0.0 mm 0.00 in0.0 mm
02:30 AM 73.6°F23.1°C 53.8°F12.1°C 50% 3.2 mph SSE5.1 kmh SSE 6.9 mph11.1 kmh 29.91 in1012.9 mb 0.00 in0.0 mm 0.00 in0.0 mm 0.00 in0.0 mm
02:45 AM 72.3°F22.4°C 53.2°F11.8°C 51% 3.6 mph SSE5.8 kmh SSE 7.6 mph12.2 kmh 29.91 in1012.9 mb 0.00 in0.0 mm 0.00 in0.0 mm 0.00 in0.0 mm
03:00 AM 71.4°F21.9°C 55.9°F13.3°C 58% 2.6 mph SSE4.2 kmh SSE 6.0 mph9.7 kmh 29.91 in1012.9 mb 0.00 in0.0 mm 0.00 in0.0 mm 0.00 in0.0 mm
03:15 AM 71.4°F21.9°C 53.9°F12.2°C 54% 1.0 mph SSE1.6 kmh SSE 3.1 mph5.0 kmh 29.90 in1012.5 mb 0.00 in0.0 mm 0.00 in0.0 mm 0.00 in0.0 mm
03:30 AM 71.4°F21.9°C 53.4°F11.9°C 53% 2.3 mph SSE3.7 kmh SSE 6.3 mph10.1 kmh 29.91 in1012.9 mb 0.00 in0.0 mm 0.00 in0.0 mm 0.00 in0.0 mm
03:45 AM 71.2°F21.8°C 53.2°F11.8°C 53% 4.2 mph SSE6.8 kmh SSE 7.4 mph11.9 kmh 29.91 in1012.9 mb 0.00 in0.0 mm 0.00 in0.0 mm 0.00 in0.0 mm
04:00 AM 71.1°F21.7°C 53.1°F11.7°C 53% 4.8 mph SE7.7 kmh SE 9.2 mph14.8 kmh 29.91 in1012.9 mb 0.00 in0.0 mm 0.00 in0.0 mm 0.00 in0.0 mm
04:15 AM 70.9°F21.6°C 52.9°F11.6°C 53% 3.0 mph SSE4.8 kmh SSE 6.7 mph10.8 kmh 29.92 in1013.2 mb 0.00 in0.0 mm 0.00 in0.0 mm 0.00 in0.0 mm
04:30 AM 70.9°F21.6°C 52.4°F11.3°C 52% 2.4 mph SSE3.9 kmh SSE 5.4 mph8.7 kmh 29.92 in1013.2 mb 0.00 in0.0 mm 0.00 in0.0 mm 0.00 in0.0 mm
04:45 AM 70.5°F21.4°C 52.0°F11.1°C 52% 2.5 mph SSE4.0 kmh SSE 8.3 mph13.4 kmh 29.92 in1013.2 mb 0.00 in0.0 mm 0.00 in0.0 mm 0.00 in0.0 mm
05:00 AM 70.0°F21.1°C 51.5°F10.8°C 52% 2.9 mph SE4.7 kmh SE 7.4 mph11.9 kmh 29.92 in1013.2 mb 0.00 in0.0 mm 0.00 in0.0 mm 0.00 in0.0 mm
05:15 AM 69.8°F21.0°C 51.4°F10.8°C 52% 2.8 mph SSE4.5 kmh SSE 6.3 mph10.1 kmh 29.92 in1013.2 mb 0.00 in0.0 mm 0.00 in0.0 mm 0.00 in0.0 mm
05:30 AM 69.8°F21.0°C 51.9°F11.1°C 53% 2.0 mph SE3.2 kmh SE 6.9 mph11.1 kmh 29.93 in1013.5 mb 0.00 in0.0 mm 0.00 in0.0 mm 0.00 in0.0 mm
05:45 AM 70.0°F21.1°C 52.6°F11.4°C 54% 2.3 mph SSE3.7 kmh SSE 6.3 mph10.1 kmh 29.93 in1013.5 mb 0.00 in0.0 mm 0.00 in0.0 mm 0.00 in0.0 mm
06:00 AM 69.4°F20.8°C 53.1°F11.7°C 56% 1.7 mph SSE2.7 kmh SSE 5.8 mph9.3 kmh 29.94 in1013.9 mb 0.00 in0.0 mm 0.00 in0.0 mm 0.00 in0.0 mm
06:15 AM 69.6°F20.9°C 53.7°F12.1°C 57% 1.8 mph SSE2.9 kmh SSE 4.0 mph6.4 kmh 29.94 in1013.9 mb 0.00 in0.0 mm 0.00 in0.0 mm 0.00 in0.0 mm
06:30 AM 70.0°F21.1°C 54.0°F12.2°C 57% 0.8 mph SSE1.3 kmh SSE 3.8 mph6.1 kmh 29.94 in1013.9 mb 0.00 in0.0 mm 0.00 in0.0 mm 0.00 in0.0 mm
06:45 AM 70.3°F21.3°C 54.9°F12.7°C 58% 0.5 mph SSE0.8 kmh SSE 3.6 mph5.8 kmh 29.94 in1013.9 mb 0.00 in0.0 mm 0.00 in0.0 mm 0.00 in0.0 mm
07:00 AM 70.5°F21.4°C 55.5°F13.1°C 59% 0.2 mph SSE0.3 kmh SSE 2.5 mph4.0 kmh 29.95 in1014.2 mb 0.00 in0.0 mm 0.00 in0.0 mm 0.00 in0.0 mm
07:15 AM 71.4°F21.9°C 56.3°F13.5°C 59% 0.1 mph SSE0.2 kmh SSE 2.2 mph3.5 kmh 29.94 in1013.9 mb 0.00 in0.0 mm 0.00 in0.0 mm 0.00 in0.0 mm
07:30 AM 71.8°F22.1°C 57.6°F14.2°C 61% 0.6 mph SSE1.0 kmh SSE 2.5 mph4.0 kmh 29.94 in1013.9 mb 0.00 in0.0 mm 0.00 in0.0 mm 0.00 in0.0 mm
07:45 AM 72.7°F22.6°C 57.5°F14.2°C 59% 0.7 mph SSE1.1 kmh SSE 3.1 mph5.0 kmh 29.95 in1014.2 mb 0.00 in0.0 mm 0.00 in0.0 mm 0.00 in0.0 mm
08:00 AM 73.9°F23.3°C 59.6°F15.3°C 61% 2.3 mph SSE3.7 kmh SSE 6.3 mph10.1 kmh 29.95 in1014.2 mb 0.00 in0.0 mm 0.00 in0.0 mm 0.00 in0.0 mm
08:15 AM 75.9°F24.4°C 60.1°F15.6°C 58% 3.1 mph S5.0 kmh S 7.4 mph11.9 kmh 29.95 in1014.2 mb 0.00 in0.0 mm 0.00 in0.0 mm 0.00 in0.0 mm
08:30 AM 75.7°F24.3°C 61.8°F16.6°C 62% 1.1 mph S1.8 kmh S 4.7 mph7.6 kmh 29.95 in1014.2 mb 0.00 in0.0 mm 0.00 in0.0 mm 0.00 in0.0 mm
08:45 AM 77.7°F25.4°C 61.8°F16.6°C 58% 0.7 mph S1.1 kmh S 3.1 mph5.0 kmh 29.95 in1014.2 mb 0.00 in0.0 mm 0.00 in0.0 mm 0.00 in0.0 mm
09:00 AM 79.3°F26.3°C 63.3°F17.4°C 58% 1.9 mph S3.1 kmh S 3.6 mph5.8 kmh 29.95 in1014.2 mb 0.00 in0.0 mm 0.00 in0.0 mm 0.00 in0.0 mm
09:15 AM 79.5°F26.4°C 62.9°F17.2°C 57% 1.4 mph S2.3 kmh S 3.8 mph6.1 kmh 29.95 in1014.2 mb 0.00 in0.0 mm 0.00 in0.0 mm 0.00 in0.0 mm
09:30 AM 80.8°F27.1°C 64.6°F18.1°C 58% 1.8 mph SSW2.9 kmh SSW 5.1 mph8.2 kmh 29.95 in1014.2 mb 0.00 in0.0 mm 0.00 in0.0 mm 0.00 in0.0 mm
09:45 AM 81.1°F27.3°C 64.0°F17.8°C 56% 0.9 mph SSW1.4 kmh SSW 3.8 mph6.1 kmh 29.96 in1014.6 mb 0.00 in0.0 mm 0.00 in0.0 mm 0.00 in0.0 mm
10:00 AM 80.8°F27.1°C 63.6°F17.6°C 56% 2.4 mph SW3.9 kmh SW 6.7 mph10.8 kmh 29.96 in1014.6 mb 0.00 in0.0 mm 0.00 in0.0 mm 0.00 in0.0 mm
10:15 AM 82.2°F27.9°C 63.4°F17.4°C 53% 2.7 mph SW4.3 kmh SW 7.6 mph12.2 kmh 29.96 in1014.6 mb 0.00 in0.0 mm 0.00 in0.0 mm 0.00 in0.0 mm
10:30 AM 81.5°F27.5°C 63.3°F17.4°C 54% 3.9 mph NW6.3 kmh NW 7.8 mph12.6 kmh 29.97 in1014.9 mb 0.00 in0.0 mm 0.00 in0.0 mm 0.00 in0.0 mm
10:45 AM 82.2°F27.9°C 63.4°F17.4°C 53% 2.3 mph WSW3.7 kmh WSW 11.2 mph18.0 kmh 29.97 in1014.9 mb 0.00 in0.0 mm 0.00 in0.0 mm 0.00 in0.0 mm
11:00 AM 79.3°F26.3°C 59.6°F15.3°C 51% 6.5 mph SSW10.5 kmh SSW 13.6 mph21.9 kmh 29.97 in1014.9 mb 0.00 in0.0 mm 0.00 in0.0 mm 0.00 in0.0 mm
11:15 AM 77.4°F25.2°C 60.4°F15.8°C 56% 8.9 mph S14.3 kmh S 14.5 mph23.3 kmh 29.97 in1014.9 mb 0.00 in0.0 mm 0.00 in0.0 mm 0.00 in0.0 mm
11:30 AM 80.4°F26.9°C 62.2°F16.8°C 54% 4.6 mph WSW7.4 kmh WSW 10.1 mph16.3 kmh 29.97 in1014.9 mb 0.00 in0.0 mm 0.00 in0.0 mm 0.00 in0.0 mm
11:45 AM 77.7°F25.4°C 59.7°F15.4°C 54% 8.3 mph S13.4 kmh S 15.2 mph24.5 kmh 29.98 in1015.2 mb 0.00 in0.0 mm 0.00 in0.0 mm 0.00 in0.0 mm
12:00 PM 78.6°F25.9°C 59.0°F15.0°C 51% 6.8 mph S10.9 kmh S 11.4 mph18.3 kmh 29.97 in1014.9 mb 0.00 in0.0 mm 0.00 in0.0 mm 0.00 in0.0 mm
12:15 PM 81.3°F27.4°C 62.6°F17.0°C 53% 1.8 mph WNW2.9 kmh WNW 6.7 mph10.8 kmh 29.97 in1014.9 mb 0.00 in0.0 mm 0.00 in0.0 mm 0.00 in0.0 mm
12:30 PM 82.4°F28.0°C 61.9°F16.6°C 50% 4.2 mph SW6.8 kmh SW 9.8 mph15.8 kmh 29.97 in1014.9 mb 0.00 in0.0 mm 0.00 in0.0 mm 0.00 in0.0 mm
12:45 PM 82.6°F28.1°C 61.5°F16.4°C 49% 4.8 mph SW7.7 kmh SW 11.2 mph18.0 kmh 29.98 in1015.2 mb 0.00 in0.0 mm 0.00 in0.0 mm 0.00 in0.0 mm
01:00 PM 83.5°F28.6°C 61.7°F16.5°C 48% 2.9 mph SW4.7 kmh SW 9.2 mph14.8 kmh 29.97 in1014.9 mb 0.00 in0.0 mm 0.00 in0.0 mm 0.00 in0.0 mm
01:15 PM 80.4°F26.9°C 61.7°F16.5°C 53% 3.2 mph S5.1 kmh S 8.5 mph13.7 kmh 29.97 in1014.9 mb 0.00 in0.0 mm 0.00 in0.0 mm 0.00 in0.0 mm
01:30 PM 79.9°F26.6°C 60.7°F15.9°C 52% 4.5 mph SW7.2 kmh SW 11.9 mph19.2 kmh 29.98 in1015.2 mb 0.00 in0.0 mm 0.00 in0.0 mm 0.00 in0.0 mm
01:45 PM 81.3°F27.4°C 60.9°F16.1°C 50% 6.3 mph SW10.1 kmh SW 15.0 mph24.1 kmh 29.98 in1015.2 mb 0.00 in0.0 mm 0.00 in0.0 mm 0.00 in0.0 mm
02:00 PM 80.2°F26.8°C 59.9°F15.5°C 50% 7.0 mph SSW11.3 kmh SSW 15.9 mph25.6 kmh 29.98 in1015.2 mb 0.00 in0.0 mm 0.00 in0.0 mm 0.00 in0.0 mm
02:15 PM 79.0°F26.1°C 59.3°F15.2°C 51% 7.7 mph S12.4 kmh S 13.9 mph22.4 kmh 29.98 in1015.2 mb 0.00 in0.0 mm 0.00 in0.0 mm 0.00 in0.0 mm
02:30 PM 79.5°F26.4°C 59.8°F15.4°C 51% 6.4 mph SW10.3 kmh SW 13.9 mph22.4 kmh 29.98 in1015.2 mb 0.00 in0.0 mm 0.00 in0.0 mm 0.00 in0.0 mm
02:45 PM 78.6°F25.9°C 58.4°F14.7°C 50% 8.3 mph S13.4 kmh S 15.2 mph24.5 kmh 29.98 in1015.2 mb 0.00 in0.0 mm 0.00 in0.0 mm 0.00 in0.0 mm
03:00 PM 79.5°F26.4°C 58.1°F14.5°C 48% 6.9 mph SW11.1 kmh SW 11.9 mph19.2 kmh 29.98 in1015.2 mb 0.00 in0.0 mm 0.00 in0.0 mm 0.00 in0.0 mm
03:15 PM 78.6°F25.9°C 56.7°F13.7°C 48% 9.2 mph S14.8 kmh S 15.9 mph25.6 kmh 29.98 in1015.2 mb 0.00 in0.0 mm 0.00 in0.0 mm 0.00 in0.0 mm
03:30 PM 78.1°F25.6°C 56.8°F13.8°C 48% 8.1 mph S13.0 kmh S 12.8 mph20.6 kmh 29.98 in1015.2 mb 0.00 in0.0 mm 0.00 in0.0 mm 0.00 in0.0 mm
03:45 PM 78.6°F25.9°C 57.3°F14.1°C 48% 7.6 mph S12.2 kmh S 13.0 mph20.9 kmh 29.97 in1014.9 mb 0.00 in0.0 mm 0.00 in0.0 mm 0.00 in0.0 mm
04:00 PM 78.3°F25.7°C 55.8°F13.2°C 46% 7.1 mph S11.4 kmh S 13.2 mph21.2 kmh 29.97 in1014.9 mb 0.00 in0.0 mm 0.00 in0.0 mm 0.00 in0.0 mm
04:15 PM 77.7°F25.4°C 55.3°F12.9°C 46% 7.2 mph S11.6 kmh S 11.6 mph18.7 kmh 29.96 in1014.6 mb 0.00 in0.0 mm 0.00 in0.0 mm 0.00 in0.0 mm
04:30 PM 77.5°F25.3°C 55.1°F12.8°C 46% 8.4 mph SSW13.5 kmh SSW 14.5 mph23.3 kmh 29.97 in1014.9 mb 0.00 in0.0 mm 0.00 in0.0 mm 0.00 in0.0 mm
04:45 PM 78.1°F25.6°C 55.0°F12.8°C 45% 7.2 mph SW11.6 kmh SW 15.7 mph25.3 kmh 29.97 in1014.9 mb 0.00 in0.0 mm 0.00 in0.0 mm 0.00 in0.0 mm
05:00 PM 77.0°F25.0°C 55.2°F12.9°C 47% 8.0 mph S12.9 kmh S 13.9 mph22.4 kmh 29.97 in1014.9 mb 0.00 in0.0 mm 0.00 in0.0 mm 0.00 in0.0 mm
05:15 PM 77.0°F25.0°C 55.8°F13.2°C 48% 7.2 mph SW11.6 kmh SW 11.9 mph19.2 kmh 29.96 in1014.6 mb 0.00 in0.0 mm 0.00 in0.0 mm 0.00 in0.0 mm
05:30 PM 77.5°F25.3°C 56.9°F13.8°C 49% 3.7 mph SW6.0 kmh SW 7.2 mph11.6 kmh 29.97 in1014.9 mb 0.00 in0.0 mm 0.00 in0.0 mm 0.00 in0.0 mm
05:45 PM 76.1°F24.5°C 55.5°F13.1°C 49% 6.1 mph SSW9.8 kmh SSW 12.1 mph19.5 kmh 29.97 in1014.9 mb 0.00 in0.0 mm 0.00 in0.0 mm 0.00 in0.0 mm
06:00 PM 75.4°F24.1°C 56.0°F13.3°C 51% 5.1 mph SSW8.2 kmh SSW 11.4 mph18.3 kmh 29.97 in1014.9 mb 0.00 in0.0 mm 0.00 in0.0 mm 0.00 in0.0 mm
06:15 PM 74.8°F23.8°C 56.0°F13.3°C 52% 4.0 mph S6.4 kmh S 7.6 mph12.2 kmh 29.97 in1014.9 mb 0.00 in0.0 mm 0.00 in0.0 mm 0.00 in0.0 mm
06:30 PM 74.8°F23.8°C 56.6°F13.7°C 53% 4.4 mph S7.1 kmh S 8.7 mph14.0 kmh 29.97 in1014.9 mb 0.00 in0.0 mm 0.00 in0.0 mm 0.00 in0.0 mm
06:45 PM 74.5°F23.6°C 57.3°F14.1°C 55% 2.8 mph S4.5 kmh S 5.1 mph8.2 kmh 29.97 in1014.9 mb 0.00 in0.0 mm 0.00 in0.0 mm 0.00 in0.0 mm
07:00 PM 73.8°F23.2°C 57.1°F13.9°C 56% 0.4 mph S0.6 kmh S 2.5 mph4.0 kmh 29.97 in1014.9 mb 0.00 in0.0 mm 0.00 in0.0 mm 0.00 in0.0 mm
07:15 PM 73.0°F22.8°C 56.9°F13.8°C 57% 0.1 mph S0.2 kmh S 1.3 mph2.1 kmh 29.97 in1014.9 mb 0.00 in0.0 mm 0.00 in0.0 mm 0.00 in0.0 mm
07:30 PM 72.7°F22.6°C 57.0°F13.9°C 58% 0.2 mph S0.3 kmh S 1.8 mph2.9 kmh 29.97 in1014.9 mb 0.00 in0.0 mm 0.00 in0.0 mm 0.00 in0.0 mm
07:45 PM 72.0°F22.2°C 56.4°F13.6°C 58% Calm Calm 0.9 mph1.4 kmh 29.97 in1014.9 mb 0.00 in0.0 mm 0.00 in0.0 mm 0.00 in0.0 mm
08:00 PM 71.2°F21.8°C 56.2°F13.4°C 59% Calm Calm -- 29.97 in1014.9 mb 0.00 in0.0 mm 0.00 in0.0 mm 0.00 in0.0 mm
08:15 PM 71.2°F21.8°C 56.6°F13.7°C 60% 0.1 mph S0.2 kmh S 2.2 mph3.5 kmh 29.98 in1015.2 mb 0.00 in0.0 mm 0.00 in0.0 mm 0.00 in0.0 mm
08:30 PM 70.3°F21.3°C 56.2°F13.4°C 61% 1.8 mph S2.9 kmh S 2.5 mph4.0 kmh 29.97 in1014.9 mb 0.00 in0.0 mm 0.00 in0.0 mm 0.00 in0.0 mm
08:45 PM 69.8°F21.0°C 56.2°F13.4°C 62% 2.0 mph S3.2 kmh S 3.8 mph6.1 kmh 29.97 in1014.9 mb 0.00 in0.0 mm 0.00 in0.0 mm 0.00 in0.0 mm
09:00 PM 70.0°F21.1°C 55.5°F13.1°C 60% 0.3 mph S0.5 kmh S 1.8 mph2.9 kmh 29.97 in1014.9 mb 0.00 in0.0 mm 0.00 in0.0 mm 0.00 in0.0 mm
09:15 PM 70.3°F21.3°C 54.9°F12.7°C 58% 0.1 mph S0.2 kmh S 1.3 mph2.1 kmh 29.97 in1014.9 mb 0.00 in0.0 mm 0.00 in0.0 mm 0.00 in0.0 mm
09:30 PM 70.5°F21.4°C 54.5°F12.5°C 57% 0.8 mph S1.3 kmh S 2.9 mph4.7 kmh 29.96 in1014.6 mb 0.00 in0.0 mm 0.00 in0.0 mm 0.00 in0.0 mm
09:45 PM 70.5°F21.4°C 54.5°F12.5°C 57% 0.6 mph S1.0 kmh S 2.5 mph4.0 kmh 29.96 in1014.6 mb 0.00 in0.0 mm 0.00 in0.0 mm 0.00 in0.0 mm
10:00 PM 70.3°F21.3°C 53.9°F12.2°C 56% 0.2 mph S0.3 kmh S 1.6 mph2.6 kmh 29.97 in1014.9 mb 0.00 in0.0 mm 0.00 in0.0 mm 0.00 in0.0 mm
10:15 PM 70.3°F21.3°C 53.9°F12.2°C 56% Calm Calm -- 29.97 in1014.9 mb 0.00 in0.0 mm 0.00 in0.0 mm 0.00 in0.0 mm
10:30 PM 70.0°F21.1°C 54.5°F12.5°C 58% 1.4 mph S2.3 kmh S 2.7 mph4.3 kmh 29.97 in1014.9 mb 0.00 in0.0 mm 0.00 in0.0 mm 0.00 in0.0 mm
10:45 PM 69.6°F20.9°C 55.1°F12.8°C 60% 1.4 mph S2.3 kmh S 3.1 mph5.0 kmh 29.97 in1014.9 mb 0.00 in0.0 mm 0.00 in0.0 mm 0.00 in0.0 mm
11:00 PM 69.4°F20.8°C 55.9°F13.3°C 62% 0.6 mph S1.0 kmh S 2.2 mph3.5 kmh 29.97 in1014.9 mb 0.00 in0.0 mm 0.00 in0.0 mm 0.00 in0.0 mm
11:15 PM 69.3°F20.7°C 55.2°F12.9°C 61% 1.4 mph S2.3 kmh S 2.7 mph4.3 kmh 29.96 in1014.6 mb 0.00 in0.0 mm 0.00 in0.0 mm 0.00 in0.0 mm
11:30 PM 68.7°F20.4°C 55.2°F12.9°C 62% 1.7 mph S2.7 kmh S 3.1 mph5.0 kmh 29.96 in1014.6 mb 0.00 in0.0 mm 0.00 in0.0 mm 0.00 in0.0 mm
11:38 PM 69.6°F20.9°C 55.6°F13.1°C 61% Calm Calm -- 29.96 in1014.6 mb 0.00 in0.0 mm 0.00 in0.0 mm 0.00 in0.0 mm
11:45 PM 68.7°F20.4°C 55.2°F12.9°C 62% 0.8 mph S1.3 kmh S 2.7 mph4.3 kmh 29.96 in1014.6 mb 0.00 in0.0 mm 0.00 in0.0 mm 0.00 in0.0 mm